createdAt,value
2019-04-14T00:02:34.022Z,88.55
2019-04-14T00:05:06.127Z,88.65
2019-04-14T00:07:36.290Z,88.86
2019-04-14T00:10:09.255Z,88.66
2019-04-14T00:12:38.759Z,88.61
2019-04-14T00:15:21.171Z,88.59
2019-04-14T00:17:41.376Z,88.52
2019-04-14T00:20:11.874Z,88.41
2019-04-14T00:22:42.443Z,88.55
2019-04-14T00:25:13.015Z,88.50
2019-04-14T00:27:43.225Z,88.94
2019-04-14T00:30:14.476Z,89.25
2019-04-14T00:32:48.785Z,89.44
2019-04-14T00:35:30.645Z,89.48
2019-04-14T00:38:20.146Z,89.38
2019-04-14T00:41:09.382Z,89.15
2019-04-14T00:43:44.062Z,89.16
2019-04-14T00:46:21.173Z,88.60
2019-04-14T00:48:53.867Z,88.17
2019-04-14T00:51:24.470Z,88.43
2019-04-14T00:53:53.967Z,88.89
2019-04-14T00:56:23.668Z,88.75
2019-04-14T00:58:53.959Z,88.63
2019-04-14T01:01:24.397Z,88.74
2019-04-14T01:03:54.785Z,88.88
2019-04-14T01:06:25.079Z,88.68
2019-04-14T01:08:55.400Z,88.71
2019-04-14T01:11:24.937Z,89.22
2019-04-14T01:13:55.074Z,88.90
2019-04-14T01:16:25.439Z,88.98
2019-04-14T01:18:55.880Z,88.95
2019-04-14T01:21:26.368Z,88.86
2019-04-14T01:23:56.619Z,88.61
2019-04-14T01:26:26.745Z,88.27
2019-04-14T01:28:56.793Z,88.23
2019-04-14T01:31:27.334Z,88.27
2019-04-14T01:33:57.629Z,87.75
2019-04-14T01:36:27.686Z,87.93
2019-04-14T01:38:58.141Z,87.91
2019-04-14T01:41:28.223Z,87.45
2019-04-14T01:43:58.256Z,87.08
2019-04-14T01:46:29.981Z,87.02
2019-04-14T01:48:58.683Z,87.22
2019-04-14T01:51:39.714Z,87.44
2019-04-14T01:54:26.179Z,87.12
2019-04-14T01:57:15.289Z,86.81
2019-04-14T01:59:45.925Z,86.64
2019-04-14T02:02:18.659Z,86.43
2019-04-14T02:04:48.539Z,86.77
2019-04-14T02:07:19.024Z,86.82
2019-04-14T02:09:48.933Z,86.24
2019-04-14T02:12:19.233Z,86.37
2019-04-14T02:14:49.497Z,86.98
2019-04-14T02:17:19.842Z,86.63
2019-04-14T02:19:50.284Z,86.35
2019-04-14T02:22:20.295Z,86.52
2019-04-14T02:24:50.296Z,86.79
2019-04-14T02:27:20.942Z,86.78
2019-04-14T02:29:51.541Z,86.99
2019-04-14T02:32:51.304Z,86.87
2019-04-14T02:37:58.911Z,87.15
2019-04-14T02:43:12.887Z,87.01
2019-04-14T02:45:26.766Z,87.37
2019-04-14T02:53:03.770Z,86.58
2019-04-14T02:55:21.392Z,86.26
2019-04-14T02:58:04.182Z,86.21
2019-04-14T03:00:31.651Z,87.01
2019-04-14T03:03:01.222Z,87.37
2019-04-14T03:05:37.577Z,87.51
2019-04-14T03:10:40.339Z,87.06
2019-04-14T03:13:21.223Z,86.96
2019-04-14T03:15:39.824Z,86.69
2019-04-14T03:21:30.625Z,87.04
2019-04-14T03:24:17.022Z,87.01
2019-04-14T03:27:00.323Z,87.10
2019-04-14T03:29:28.882Z,87.20
2019-04-14T03:32:19.098Z,86.96
2019-04-14T03:37:27.126Z,86.75
2019-04-14T03:44:41.341Z,86.14
2019-04-14T03:49:58.365Z,85.89
2019-04-14T03:52:03.694Z,85.80
2019-04-14T03:54:36.693Z,86.08
2019-04-14T03:56:51.748Z,85.52
2019-04-14T03:59:21.886Z,85.51
2019-04-14T04:01:52.256Z,85.56
2019-04-14T04:04:22.737Z,86.28
2019-04-14T04:06:53.169Z,86.93
2019-04-14T04:09:27.811Z,87.78
2019-04-14T04:11:58.378Z,87.77
2019-04-14T04:14:28.056Z,87.45
2019-04-14T04:17:34.029Z,87.41
2019-04-14T04:20:32.601Z,87.42
2019-04-14T04:23:21.095Z,87.25
2019-04-14T04:26:04.077Z,87.05
2019-04-14T04:28:56.228Z,86.80
2019-04-14T04:31:46.224Z,86.62
2019-04-14T04:34:27.312Z,86.53
2019-04-14T04:37:06.785Z,85.34
2019-04-14T04:39:39.776Z,83.81
2019-04-14T04:42:11.148Z,83.12
2019-04-14T04:44:42.033Z,80.02
2019-04-14T04:47:12.388Z,75.44
2019-04-14T04:49:42.629Z,73.02
2019-04-14T04:52:13.926Z,71.58
2019-04-14T04:54:44.907Z,69.97
2019-04-14T04:57:15.481Z,67.48
2019-04-14T04:59:45.308Z,65.44
2019-04-14T05:02:15.543Z,64.57
2019-04-14T05:04:46.024Z,61.64
2019-04-14T05:07:16.554Z,60.65
2019-04-14T05:10:24.202Z,60.08
2019-04-14T05:13:14.095Z,59.91
2019-04-14T05:15:46.578Z,59.74
2019-04-14T05:18:24.683Z,57.96
2019-04-14T05:20:55.392Z,56.47
2019-04-14T05:23:25.617Z,56.21
2019-04-14T05:25:56.137Z,56.32
2019-04-14T05:28:26.703Z,56.26
2019-04-14T05:30:56.886Z,55.07
2019-04-14T05:33:27.138Z,56.04
2019-04-14T05:35:57.418Z,55.83
2019-04-14T05:38:30.270Z,55.28
2019-04-14T05:40:58.547Z,54.72
2019-04-14T05:43:37.092Z,55.04
2019-04-14T05:45:59.192Z,55.04
2019-04-14T05:48:29.365Z,56.24
2019-04-14T05:50:59.860Z,53.92
2019-04-14T05:53:30.451Z,52.66
2019-04-14T05:55:59.914Z,52.91
2019-04-14T05:58:29.706Z,52.01
2019-04-14T06:01:00.305Z,50.89
2019-04-14T06:03:30.003Z,51.46
2019-04-14T06:05:59.352Z,51.90
2019-04-14T06:08:28.805Z,53.04
2019-04-14T06:10:58.163Z,53.29
2019-04-14T06:13:27.677Z,52.05
2019-04-14T06:15:57.088Z,54.00
2019-04-14T06:18:27.387Z,54.78
2019-04-14T06:20:57.243Z,53.21
2019-04-14T06:23:27.932Z,53.90
2019-04-14T06:25:57.301Z,51.47
2019-04-14T06:28:26.624Z,50.43
2019-04-14T06:31:20.996Z,50.07
2019-04-14T06:34:12.340Z,50.72
2019-04-14T06:36:59.515Z,51.68
2019-04-14T06:39:31.723Z,50.31
2019-04-14T06:42:01.602Z,50.83
2019-04-14T06:44:30.981Z,54.11
2019-04-14T06:47:00.324Z,54.65
2019-04-14T06:49:29.753Z,57.89
2019-04-14T06:51:59.117Z,58.57
2019-04-14T06:54:28.502Z,60.08
2019-04-14T06:56:57.867Z,55.77
2019-04-14T06:59:27.204Z,53.09
2019-04-14T07:01:56.570Z,53.84
2019-04-14T07:04:25.990Z,56.24
2019-04-14T07:06:55.356Z,57.08
2019-04-14T07:09:24.765Z,57.08
2019-04-14T07:11:54.560Z,58.76
2019-04-14T07:14:23.906Z,59.40
2019-04-14T07:16:53.281Z,60.17
2019-04-14T07:19:22.622Z,57.26
2019-04-14T07:21:51.961Z,55.34
2019-04-14T07:24:21.326Z,56.51
2019-04-14T07:26:50.673Z,58.34
2019-04-14T07:29:20.048Z,59.76
2019-04-14T07:32:07.377Z,59.33
2019-04-14T07:34:58.766Z,58.83
2019-04-14T07:37:45.921Z,60.00
2019-04-14T07:40:31.193Z,60.60
2019-04-14T07:43:28.490Z,60.60
2019-04-14T07:46:11.611Z,60.11
2019-04-14T07:49:17.990Z,59.27
2019-04-14T07:52:06.264Z,60.40
2019-04-14T07:54:41.553Z,61.80
2019-04-14T07:57:35.721Z,60.80
2019-04-14T08:00:27.971Z,60.48
2019-04-14T08:03:05.080Z,57.69
2019-04-14T08:05:38.704Z,56.30
2019-04-14T08:08:08.262Z,55.59
2019-04-14T08:10:37.675Z,57.58
2019-04-14T08:13:07.014Z,57.95
2019-04-14T08:15:36.395Z,57.65
2019-04-14T08:18:05.735Z,57.61
2019-04-14T08:20:35.852Z,57.36
2019-04-14T08:23:05.256Z,58.23
2019-04-14T08:25:35.130Z,57.84
2019-04-14T08:28:04.774Z,57.53
2019-04-14T08:30:34.214Z,56.94
2019-04-14T08:33:03.591Z,57.88
2019-04-14T08:35:32.945Z,56.77
2019-04-14T08:38:02.263Z,52.75
2019-04-14T08:40:31.624Z,55.19
2019-04-14T08:43:32.055Z,55.83
2019-04-14T08:46:10.428Z,54.96
2019-04-14T08:48:48.053Z,57.59
2019-04-14T08:51:24.459Z,57.85
2019-04-14T08:54:11.692Z,55.49
2019-04-14T08:57:09.333Z,52.57
2019-04-14T09:00:15.815Z,52.89
2019-04-14T09:03:02.591Z,54.33
2019-04-14T09:05:46.084Z,56.22
2019-04-14T09:08:43.196Z,57.85
2019-04-14T09:11:12.557Z,57.58
2019-04-14T09:13:41.926Z,58.10
2019-04-14T09:16:11.280Z,58.21
2019-04-14T09:18:41.080Z,56.97
2019-04-14T09:21:12.691Z,57.24
2019-04-14T09:23:42.068Z,57.68
2019-04-14T09:26:11.464Z,58.19
2019-04-14T09:28:40.814Z,56.93
2019-04-14T09:31:10.635Z,55.46
2019-04-14T09:33:40.011Z,52.72
2019-04-14T09:36:09.483Z,56.07
2019-04-14T09:38:38.860Z,54.14
2019-04-14T09:41:08.267Z,52.23
2019-04-14T09:43:38.098Z,53.20
2019-04-14T09:46:07.565Z,54.27
2019-04-14T09:48:36.915Z,54.91
2019-04-14T09:51:06.458Z,55.76
2019-04-14T09:53:35.830Z,55.50
2019-04-14T09:56:05.252Z,54.51
2019-04-14T09:58:34.672Z,54.02
2019-04-14T10:01:04.013Z,51.81
2019-04-14T10:03:33.391Z,47.43
2019-04-14T10:06:02.754Z,47.38
2019-04-14T10:08:32.129Z,46.52
2019-04-14T10:11:01.856Z,47.01
2019-04-14T10:13:31.222Z,49.25
2019-04-14T10:16:00.629Z,50.48
2019-04-14T10:18:29.992Z,53.02
2019-04-14T10:20:59.498Z,54.51
2019-04-14T10:23:28.872Z,52.12
2019-04-14T10:25:58.221Z,51.01
2019-04-14T10:28:27.629Z,53.36
2019-04-14T10:30:57.074Z,53.54
2019-04-14T10:33:27.039Z,54.29
2019-04-14T10:35:57.335Z,52.15
2019-04-14T10:38:26.991Z,48.44
2019-04-14T10:40:56.848Z,46.80
2019-04-14T10:43:26.581Z,45.66
2019-04-14T10:45:56.322Z,45.01
2019-04-14T10:48:26.103Z,47.01
2019-04-14T10:50:59.465Z,50.00
2019-04-14T10:53:29.625Z,51.43
2019-04-14T10:55:59.343Z,52.59
2019-04-14T10:58:29.285Z,53.98
2019-04-14T11:00:59.195Z,51.76
2019-04-14T11:03:29.416Z,48.63
2019-04-14T11:06:12.942Z,49.92
2019-04-14T11:08:43.037Z,48.43
2019-04-14T11:11:13.057Z,47.47
2019-04-14T11:13:42.796Z,45.75
2019-04-14T11:16:12.609Z,46.62
2019-04-14T11:18:42.424Z,47.28
2019-04-14T11:21:13.024Z,45.24
2019-04-14T11:23:43.125Z,44.12
2019-04-14T11:26:12.549Z,46.95
2019-04-14T11:28:42.903Z,46.24
2019-04-14T11:31:14.895Z,45.30
2019-04-14T11:34:01.687Z,47.29
2019-04-14T11:36:46.209Z,46.73
2019-04-14T11:39:17.408Z,46.52
2019-04-14T11:41:48.890Z,45.92
2019-04-14T11:44:24.345Z,45.57
2019-04-14T11:46:56.263Z,45.13
2019-04-14T11:49:27.825Z,45.19
2019-04-14T11:51:59.937Z,46.37
2019-04-14T11:54:30.267Z,45.53
2019-04-14T11:56:59.973Z,45.43
2019-04-14T11:59:38.292Z,46.62
2019-04-14T12:02:16.795Z,47.11
2019-04-14T12:05:08.168Z,46.74
2019-04-14T12:07:45.500Z,48.04
2019-04-14T12:10:16.716Z,46.58
2019-04-14T12:12:47.857Z,47.89
2019-04-14T12:15:17.348Z,47.36
2019-04-14T12:17:47.034Z,45.67
2019-04-14T12:20:16.422Z,44.65
2019-04-14T12:22:45.854Z,45.47
2019-04-14T12:25:15.374Z,45.34
2019-04-14T12:27:44.743Z,45.07
2019-04-14T12:30:14.283Z,45.00
2019-04-14T12:32:43.819Z,45.93
2019-04-14T12:35:13.421Z,46.15
2019-04-14T12:37:43.884Z,46.22
2019-04-14T12:40:13.482Z,46.21
2019-04-14T12:43:07.985Z,45.49
2019-04-14T12:46:06.421Z,45.12
2019-04-14T12:48:48.063Z,45.61
2019-04-14T12:51:21.404Z,48.08
2019-04-14T12:53:50.795Z,50.50
2019-04-14T12:56:23.977Z,50.69
2019-04-14T12:59:18.791Z,52.96
2019-04-14T13:02:06.026Z,53.01
2019-04-14T13:04:35.418Z,50.68
2019-04-14T13:07:04.919Z,50.23
2019-04-14T13:09:34.739Z,48.62
2019-04-14T13:12:04.088Z,49.21
2019-04-14T13:14:33.464Z,49.96
2019-04-14T13:17:02.836Z,50.72
2019-04-14T13:19:32.226Z,49.67
2019-04-14T13:22:01.684Z,49.70
2019-04-14T13:24:31.489Z,49.08
2019-04-14T13:27:01.170Z,50.94
2019-04-14T13:29:30.551Z,52.26
2019-04-14T13:32:01.187Z,54.42
2019-04-14T13:34:30.587Z,55.29
2019-04-14T13:36:59.988Z,56.26
2019-04-14T13:39:29.542Z,58.06
2019-04-14T13:41:59.056Z,57.50
2019-04-14T13:44:28.505Z,56.16
2019-04-14T13:46:57.866Z,56.69
2019-04-14T13:49:27.444Z,56.61
2019-04-14T13:51:56.838Z,56.63
2019-04-14T13:54:26.632Z,56.67
2019-04-14T13:56:56.271Z,57.18
2019-04-14T13:59:25.669Z,58.13
2019-04-14T14:01:55.448Z,58.74
2019-04-14T14:04:25.398Z,58.57
2019-04-14T14:06:54.888Z,58.48
2019-04-14T14:09:24.806Z,58.51
2019-04-14T14:12:18.962Z,57.77
2019-04-14T14:15:19.275Z,57.37
2019-04-14T14:18:07.542Z,57.37
2019-04-14T14:21:02.282Z,57.44
2019-04-14T14:23:48.834Z,57.29
2019-04-14T14:26:19.298Z,56.73
2019-04-14T14:28:49.143Z,58.19
2019-04-14T14:31:19.837Z,57.44
2019-04-14T14:33:49.264Z,58.25
2019-04-14T14:36:18.637Z,59.36
2019-04-14T14:38:48.029Z,59.70
2019-04-14T14:41:18.164Z,58.68
2019-04-14T14:43:47.984Z,59.69
2019-04-14T14:46:36.913Z,58.75
2019-04-14T14:49:10.248Z,59.17
2019-04-14T14:51:54.201Z,58.36
2019-04-14T14:54:23.556Z,58.31
2019-04-14T14:56:52.973Z,58.28
2019-04-14T14:59:22.356Z,58.66
2019-04-14T15:01:51.763Z,59.27
2019-04-14T15:04:21.157Z,59.81
2019-04-14T15:06:50.498Z,59.25
2019-04-14T15:09:19.864Z,59.58
2019-04-14T15:11:49.232Z,60.54
2019-04-14T15:14:18.602Z,60.78
2019-04-14T15:16:48.371Z,60.92
2019-04-14T15:19:17.828Z,60.21
2019-04-14T15:21:47.256Z,59.83
2019-04-14T15:24:16.619Z,59.56
2019-04-14T15:26:46.029Z,59.82
2019-04-14T15:29:15.515Z,61.07
2019-04-14T15:31:44.870Z,61.32
2019-04-14T15:34:14.279Z,62.29
2019-04-14T15:36:43.761Z,62.98
2019-04-14T15:39:14.030Z,63.30
2019-04-14T15:41:43.425Z,63.60
2019-04-14T15:44:12.913Z,63.91
2019-04-14T15:46:42.410Z,63.38
2019-04-14T15:49:11.807Z,63.75
2019-04-14T15:51:41.237Z,64.10
2019-04-14T15:54:10.659Z,64.58
2019-04-14T15:56:55.671Z,64.40
2019-04-14T16:00:02.193Z,63.84
2019-04-14T16:02:37.242Z,64.24
2019-04-14T16:05:13.318Z,64.31
2019-04-14T16:07:58.324Z,64.76
2019-04-14T16:10:50.979Z,64.69
2019-04-14T16:13:42.484Z,64.85
2019-04-14T16:16:36.875Z,64.93
2019-04-14T16:19:15.580Z,65.67
2019-04-14T16:21:45.001Z,65.93
2019-04-14T16:24:14.369Z,66.64
2019-04-14T16:26:54.348Z,66.28
2019-04-14T16:29:31.743Z,66.48
2019-04-14T16:32:11.076Z,67.24
2019-04-14T16:34:53.029Z,67.88
2019-04-14T16:37:23.048Z,67.96
2019-04-14T16:39:52.429Z,67.59
2019-04-14T16:42:22.782Z,67.95
2019-04-14T16:44:52.226Z,68.31
2019-04-14T16:47:21.679Z,68.55
2019-04-14T16:49:51.216Z,68.92
2019-04-14T16:52:42.139Z,68.99
2019-04-14T16:55:18.861Z,69.04
2019-04-14T16:58:08.856Z,69.49
2019-04-14T17:00:41.609Z,69.57
2019-04-14T17:03:11.109Z,70.05
2019-04-14T17:05:41.067Z,70.16
2019-04-14T17:08:10.837Z,70.38
2019-04-14T17:10:41.352Z,70.60
2019-04-14T17:13:11.012Z,70.87
2019-04-14T17:16:05.407Z,71.00
2019-04-14T17:18:53.843Z,70.50
2019-04-14T17:21:37.567Z,70.35
2019-04-14T17:24:29.999Z,70.90
2019-04-14T17:27:05.839Z,70.94
2019-04-14T17:29:57.462Z,70.47
2019-04-14T17:32:33.451Z,70.24
2019-04-14T17:35:21.326Z,69.91
2019-04-14T17:37:57.596Z,69.93
2019-04-14T17:40:40.992Z,69.50
2019-04-14T17:43:29.538Z,69.51
2019-04-14T17:46:03.665Z,69.63
2019-04-14T17:48:54.837Z,69.83
2019-04-14T17:51:38.479Z,69.95
2019-04-14T17:54:36.096Z,70.02
2019-04-14T17:57:37.159Z,69.54
2019-04-14T18:00:25.771Z,69.89
2019-04-14T18:03:01.180Z,69.72
2019-04-14T18:05:38.255Z,69.61
2019-04-14T18:08:17.610Z,69.84
2019-04-14T18:10:55.311Z,70.29
2019-04-14T18:13:40.130Z,70.60
2019-04-14T18:16:26.170Z,70.99
2019-04-14T18:19:33.002Z,70.88
2019-04-14T18:22:03.141Z,70.98
2019-04-14T18:24:42.432Z,71.32
2019-04-14T18:27:05.193Z,71.46
2019-04-14T18:29:39.340Z,71.46
2019-04-14T18:32:29.021Z,71.03
2019-04-14T18:35:12.543Z,70.78
2019-04-14T18:38:06.374Z,71.00
2019-04-14T18:40:58.697Z,71.18
2019-04-14T18:43:56.071Z,71.30
2019-04-14T18:47:13.937Z,71.37
2019-04-14T18:50:06.500Z,71.50
2019-04-14T18:52:59.439Z,71.72
2019-04-14T18:56:08.585Z,71.78
2019-04-14T18:59:18.143Z,72.00
2019-04-14T19:02:02.252Z,71.84
2019-04-14T19:04:32.835Z,72.26
2019-04-14T19:07:38.651Z,72.55
2019-04-14T19:10:08.271Z,72.29
2019-04-14T19:12:56.590Z,71.91
2019-04-14T19:15:36.174Z,71.88
2019-04-14T19:18:15.780Z,72.21
2019-04-14T19:20:48.430Z,72.10
2019-04-14T19:23:18.745Z,72.23
2019-04-14T19:25:48.153Z,72.47
2019-04-14T19:28:17.605Z,72.89
2019-04-14T19:30:46.999Z,73.21
2019-04-14T19:33:16.417Z,73.21
2019-04-14T19:35:45.865Z,73.51
2019-04-14T19:38:15.270Z,73.59
2019-04-14T19:40:44.794Z,73.72
2019-04-14T19:43:23.661Z,73.89
2019-04-14T19:45:45.308Z,73.74
2019-04-14T19:48:15.632Z,73.70
2019-04-14T19:50:45.904Z,73.56
2019-04-14T19:53:15.312Z,73.53
2019-04-14T19:55:44.692Z,73.58
2019-04-14T19:58:14.890Z,73.59
2019-04-14T20:00:44.275Z,73.71
2019-04-14T20:03:13.681Z,73.34
2019-04-14T20:05:43.126Z,73.53
2019-04-14T20:08:12.516Z,73.35
2019-04-14T20:10:41.956Z,73.42
2019-04-14T20:13:11.353Z,73.84
2019-04-14T20:15:58.565Z,74.02
2019-04-14T20:18:41.267Z,73.88
2019-04-14T20:21:41.721Z,73.89
2019-04-14T20:24:16.840Z,74.07
2019-04-14T20:27:01.977Z,74.10
2019-04-14T20:29:37.750Z,74.00
2019-04-14T20:32:13.298Z,74.02
2019-04-14T20:34:43.525Z,73.92
2019-04-14T20:37:12.990Z,74.05
2019-04-14T20:39:42.486Z,74.34
2019-04-14T20:42:11.934Z,74.31
2019-04-14T20:44:41.283Z,74.50
2019-04-14T20:47:10.738Z,74.73
2019-04-14T20:49:40.467Z,74.74
2019-04-14T20:52:10.170Z,74.95
2019-04-14T20:54:39.689Z,75.31
2019-04-14T20:57:09.087Z,75.36
2019-04-14T20:59:39.460Z,75.52
2019-04-14T21:02:37.589Z,75.88
2019-04-14T21:05:15.253Z,75.98
2019-04-14T21:08:06.314Z,75.72
2019-04-14T21:10:42.737Z,75.81
2019-04-14T21:13:36.882Z,75.89
2019-04-14T21:16:13.924Z,77.10
2019-04-14T21:18:51.864Z,76.21
2019-04-14T21:21:42.533Z,76.10
2019-04-14T21:24:30.739Z,76.48
2019-04-14T21:27:28.161Z,75.80
2019-04-14T21:30:15.241Z,76.25
2019-04-14T21:32:53.156Z,76.43
2019-04-14T21:35:32.882Z,76.75
2019-04-14T21:38:09.156Z,77.35
2019-04-14T21:40:45.964Z,77.44
2019-04-14T21:43:16.396Z,77.76
2019-04-14T21:45:45.874Z,78.52
2019-04-14T21:48:15.268Z,79.15
2019-04-14T21:50:49.064Z,79.27
2019-04-14T21:53:19.382Z,79.22
2019-04-14T21:55:48.830Z,79.52
2019-04-14T21:58:43.270Z,79.68
2019-04-14T22:01:56.307Z,79.83
2019-04-14T22:04:43.618Z,80.12
2019-04-14T22:07:32.578Z,80.53
2019-04-14T22:10:10.193Z,80.38
2019-04-14T22:12:39.927Z,79.91
2019-04-14T22:15:09.800Z,80.03
2019-04-14T22:17:39.971Z,80.02
2019-04-14T22:20:10.588Z,80.29
2019-04-14T22:22:40.436Z,80.29
2019-04-14T22:25:10.923Z,81.22
2019-04-14T22:27:42.991Z,82.64
2019-04-14T22:30:12.581Z,83.59
2019-04-14T22:32:42.070Z,83.82
2019-04-14T22:35:11.719Z,84.20
2019-04-14T22:37:41.403Z,84.77
2019-04-14T22:40:12.030Z,85.01
2019-04-14T22:42:41.463Z,84.19
2019-04-14T22:45:11.581Z,83.99
2019-04-14T22:47:41.034Z,82.99
2019-04-14T22:50:12.148Z,82.83
2019-04-14T22:52:43.406Z,82.83
2019-04-14T22:55:13.010Z,82.81
2019-04-14T22:57:42.593Z,82.62
2019-04-14T23:00:18.498Z,81.37
2019-04-14T23:02:59.460Z,81.34
2019-04-14T23:05:44.760Z,81.02
2019-04-14T23:08:48.397Z,80.75
2019-04-14T23:11:35.772Z,80.42
2019-04-14T23:14:23.855Z,79.72
2019-04-14T23:17:27.476Z,79.71
2019-04-14T23:20:14.458Z,79.50
2019-04-14T23:23:03.872Z,79.58
2019-04-14T23:25:33.690Z,79.81
2019-04-14T23:28:03.196Z,79.79
2019-04-14T23:30:33.527Z,79.42
2019-04-14T23:33:03.742Z,79.44
2019-04-14T23:35:33.150Z,80.05
2019-04-14T23:38:03.077Z,83.85
2019-04-14T23:40:33.365Z,85.85
2019-04-14T23:43:02.793Z,88.35
2019-04-14T23:45:32.719Z,89.57
2019-04-14T23:48:02.170Z,89.86
2019-04-14T23:50:31.629Z,90.75
2019-04-14T23:53:01.173Z,91.35
2019-04-14T23:55:30.686Z,90.75
2019-04-14T23:58:01.010Z,90.20
